createdAt,value
2022-09-09T00:00:18.645Z,11.50
2022-09-09T00:03:14.241Z,11.57
2022-09-09T00:05:48.673Z,12.35
2022-09-09T00:08:22.461Z,11.35
2022-09-09T00:10:56.361Z,12.32
2022-09-09T00:13:30.132Z,10.88
2022-09-09T00:16:06.034Z,10.93
2022-09-09T00:18:49.394Z,10.93
2022-09-09T00:21:18.512Z,9.60
2022-09-09T00:23:52.483Z,9.75
2022-09-09T00:26:28.252Z,10.40
2022-09-09T00:29:03.677Z,8.68
2022-09-09T00:31:34.008Z,9.57
2022-09-09T00:34:12.026Z,8.40
2022-09-09T00:36:40.824Z,9.00
2022-09-09T00:39:15.352Z,8.25
2022-09-09T00:42:01.220Z,10.05
2022-09-09T00:44:35.550Z,7.47
2022-09-09T00:47:31.959Z,7.63
2022-09-09T00:50:03.611Z,7.30
2022-09-09T00:52:41.697Z,6.82
2022-09-09T00:55:17.425Z,6.75
2022-09-09T00:57:47.192Z,5.22
2022-09-09T01:00:22.189Z,5.25
2022-09-09T01:03:03.227Z,7.10
2022-09-09T01:05:38.637Z,5.93
2022-09-09T01:08:17.889Z,5.10
2022-09-09T01:10:51.951Z,4.50
2022-09-09T01:13:25.832Z,5.00
2022-09-09T01:16:01.159Z,4.35
2022-09-09T01:18:35.472Z,5.78
2022-09-09T01:21:09.770Z,5.72
2022-09-09T01:23:55.944Z,5.38
2022-09-09T01:26:30.056Z,6.03
2022-09-09T01:28:57.896Z,5.55
2022-09-09T01:31:30.729Z,8.90
2022-09-09T01:33:58.450Z,5.50
2022-09-09T01:36:31.096Z,4.80
2022-09-09T01:38:59.440Z,5.45
2022-09-09T01:41:29.133Z,5.05
2022-09-09T01:43:57.653Z,5.45
2022-09-09T01:46:25.989Z,7.85
2022-09-09T01:48:55.078Z,5.50
2022-09-09T01:51:23.449Z,8.02
2022-09-09T01:53:51.753Z,6.25
2022-09-09T01:56:35.894Z,7.85
2022-09-09T01:59:16.925Z,9.35
2022-09-09T02:01:59.401Z,6.38
2022-09-09T02:04:38.645Z,7.85
2022-09-09T02:07:18.736Z,7.20
2022-09-09T02:09:52.674Z,7.10
2022-09-09T02:12:26.617Z,6.55
2022-09-09T02:14:58.226Z,6.80
2022-09-09T02:17:30.973Z,6.57
2022-09-09T02:20:06.893Z,7.00
2022-09-09T02:22:37.382Z,10.18
2022-09-09T02:25:07.492Z,9.55
2022-09-09T02:27:36.956Z,8.57
2022-09-09T02:30:06.773Z,8.43
2022-09-09T02:32:37.394Z,9.07
2022-09-09T02:35:11.344Z,9.02
2022-09-09T02:37:42.577Z,8.75
2022-09-09T02:40:14.366Z,9.00
2022-09-09T02:42:44.995Z,12.27
2022-09-09T02:45:16.209Z,9.77
2022-09-09T02:47:50.024Z,10.40
2022-09-09T02:50:21.908Z,11.15
2022-09-09T02:53:02.083Z,10.57
2022-09-09T02:55:39.557Z,10.05
2022-09-09T02:58:12.987Z,10.05
2022-09-09T03:00:42.196Z,15.57
2022-09-09T03:03:11.108Z,12.10
2022-09-09T03:05:39.593Z,10.95
2022-09-09T03:08:08.477Z,13.32
2022-09-09T03:10:37.915Z,11.90
2022-09-09T03:13:06.293Z,16.48
2022-09-09T03:15:36.162Z,19.35
2022-09-09T03:18:04.269Z,14.93
2022-09-09T03:20:32.606Z,11.30
2022-09-09T03:23:02.498Z,12.38
2022-09-09T03:25:30.893Z,12.57
2022-09-09T03:27:58.719Z,10.40
2022-09-09T03:30:28.548Z,10.07
2022-09-09T03:32:58.380Z,9.38
2022-09-09T03:35:26.161Z,10.57
2022-09-09T03:37:55.356Z,13.05
2022-09-09T03:40:24.298Z,10.15
2022-09-09T03:42:52.066Z,11.05
2022-09-09T03:45:20.339Z,12.90
2022-09-09T03:47:48.256Z,10.63
2022-09-09T03:50:17.364Z,11.77
2022-09-09T03:52:45.236Z,12.75
2022-09-09T03:55:13.082Z,12.82
2022-09-09T03:57:40.809Z,12.27
2022-09-09T04:00:10.553Z,16.83
2022-09-09T04:02:38.764Z,12.77
2022-09-09T04:05:07.896Z,14.50
2022-09-09T04:07:37.150Z,16.52
2022-09-09T04:10:05.614Z,9.77
2022-09-09T04:12:33.379Z,9.48
2022-09-09T04:15:03.006Z,11.13
2022-09-09T04:17:31.141Z,8.48
2022-09-09T04:19:59.076Z,11.95
2022-09-09T04:22:27.118Z,9.63
2022-09-09T04:24:56.373Z,10.23
2022-09-09T04:27:24.070Z,11.05
2022-09-09T04:29:52.300Z,8.90
2022-09-09T04:32:20.352Z,9.60
2022-09-09T04:34:49.068Z,10.15
2022-09-09T04:37:17.256Z,7.82
2022-09-09T04:39:46.199Z,6.72
2022-09-09T04:42:15.464Z,8.95
2022-09-09T04:44:43.402Z,6.40
2022-09-09T04:47:11.817Z,8.13
2022-09-09T04:49:40.199Z,6.95
2022-09-09T04:52:08.062Z,6.38
2022-09-09T04:54:36.061Z,9.65
2022-09-09T04:57:03.836Z,6.68
2022-09-09T04:59:33.196Z,6.15
2022-09-09T05:02:01.925Z,8.00
2022-09-09T05:04:32.449Z,7.80
2022-09-09T05:07:00.366Z,7.63
2022-09-09T05:09:28.159Z,7.40
2022-09-09T05:11:56.905Z,7.78
2022-09-09T05:14:25.026Z,9.15
2022-09-09T05:16:54.161Z,9.18
2022-09-09T05:19:21.852Z,10.35
2022-09-09T05:21:50.954Z,14.07
2022-09-09T05:24:19.416Z,11.65
2022-09-09T05:26:47.301Z,14.32
2022-09-09T05:29:15.305Z,15.05
2022-09-09T05:31:43.244Z,16.05
2022-09-09T05:34:12.546Z,15.68
2022-09-09T05:36:40.947Z,14.68
2022-09-09T05:39:08.759Z,14.07
2022-09-09T05:41:36.926Z,19.20
2022-09-09T05:44:05.115Z,18.45
2022-09-09T05:46:33.063Z,20.15
2022-09-09T05:49:01.229Z,14.18
2022-09-09T05:51:31.896Z,13.98
2022-09-09T05:54:00.378Z,13.13
2022-09-09T05:56:29.939Z,14.07
2022-09-09T05:58:58.454Z,15.35
2022-09-09T06:01:28.511Z,12.98
2022-09-09T06:03:56.668Z,10.88
2022-09-09T06:06:27.163Z,11.18
2022-09-09T06:08:58.546Z,9.80
2022-09-09T06:11:28.709Z,10.55
2022-09-09T06:13:56.630Z,8.13
2022-09-09T06:16:26.237Z,9.02
2022-09-09T06:18:55.592Z,7.80
2022-09-09T06:21:25.515Z,9.82
2022-09-09T06:23:56.747Z,8.82
2022-09-09T06:26:29.940Z,6.95
2022-09-09T06:28:58.968Z,8.23
2022-09-09T06:31:31.220Z,8.05
2022-09-09T06:34:00.744Z,6.45
2022-09-09T06:36:29.696Z,5.85
2022-09-09T06:38:58.400Z,5.28
2022-09-09T06:41:30.095Z,7.97
2022-09-09T06:43:58.161Z,5.00
2022-09-09T06:46:28.704Z,4.88
2022-09-09T06:48:59.732Z,5.30
2022-09-09T06:51:29.575Z,6.82
2022-09-09T06:53:59.696Z,6.70
2022-09-09T06:56:30.329Z,6.28
2022-09-09T06:59:01.968Z,7.47
2022-09-09T07:01:31.392Z,7.05
2022-09-09T07:04:00.754Z,4.95
2022-09-09T07:06:30.433Z,5.05
2022-09-09T07:09:00.533Z,3.45
2022-09-09T07:11:31.694Z,4.97
2022-09-09T07:14:01.057Z,3.88
2022-09-09T07:16:30.449Z,3.35
2022-09-09T07:18:58.712Z,3.00
2022-09-09T07:21:28.280Z,5.80
2022-09-09T07:23:56.884Z,4.25
2022-09-09T07:26:26.629Z,2.83
2022-09-09T07:28:56.989Z,2.55
2022-09-09T07:31:27.107Z,2.58
2022-09-09T07:33:55.615Z,2.65
2022-09-09T07:36:26.447Z,7.28
2022-09-09T07:38:58.514Z,2.30
2022-09-09T07:41:28.002Z,5.43
2022-09-09T07:43:57.106Z,3.35
2022-09-09T07:46:27.971Z,3.35
2022-09-09T07:48:57.856Z,3.25
2022-09-09T07:51:28.856Z,4.65
2022-09-09T07:53:59.467Z,2.88
2022-09-09T07:56:28.993Z,2.15
2022-09-09T07:58:59.627Z,5.75
2022-09-09T08:01:30.172Z,2.90
2022-09-09T08:04:01.975Z,3.95
2022-09-09T08:06:32.005Z,2.38
2022-09-09T08:09:00.084Z,1.65
2022-09-09T08:11:33.230Z,3.05
2022-09-09T08:14:05.661Z,2.92
2022-09-09T08:16:37.380Z,3.78
2022-09-09T08:19:06.542Z,2.35
2022-09-09T08:21:35.011Z,2.35
2022-09-09T08:24:03.643Z,3.60
2022-09-09T08:26:33.727Z,2.85
2022-09-09T08:29:03.481Z,7.15
2022-09-09T08:31:35.335Z,5.00
2022-09-09T08:34:04.712Z,1.98
2022-09-09T08:36:35.756Z,2.90
2022-09-09T08:39:04.054Z,2.20
2022-09-09T08:41:55.832Z,4.38
2022-09-09T08:44:36.995Z,4.40
2022-09-09T08:47:17.832Z,18.15
2022-09-09T08:49:57.111Z,5.10
2022-09-09T08:52:30.092Z,7.00
2022-09-09T08:55:04.889Z,3.00
2022-09-09T08:57:34.271Z,3.83
2022-09-09T09:00:02.068Z,2.58
2022-09-09T09:02:41.986Z,2.80
2022-09-09T09:05:21.092Z,5.72
2022-09-09T09:08:01.560Z,1.75
2022-09-09T09:10:44.967Z,3.65
2022-09-09T09:13:17.830Z,2.22
2022-09-09T09:15:50.638Z,1.67
2022-09-09T09:18:20.069Z,1.30
2022-09-09T09:20:56.032Z,2.30
2022-09-09T09:23:27.215Z,1.27
2022-09-09T09:26:01.584Z,1.88
2022-09-09T09:28:32.196Z,2.33
2022-09-09T09:31:05.369Z,1.77
2022-09-09T09:33:41.485Z,1.58
2022-09-09T09:36:10.056Z,3.67
2022-09-09T09:41:36.184Z,2.15
2022-09-09T09:44:05.578Z,1.13
2022-09-09T09:46:34.323Z,1.80
2022-09-09T09:49:06.432Z,1.85
2022-09-09T09:51:36.480Z,2.53
2022-09-09T09:54:27.000Z,1.98
2022-09-09T09:56:55.156Z,3.15
2022-09-09T09:59:41.318Z,2.50
2022-09-09T10:02:17.021Z,1.77
2022-09-09T10:04:47.283Z,3.50
2022-09-09T10:07:20.582Z,1.83
2022-09-09T10:09:54.705Z,1.77
2022-09-09T10:12:33.834Z,3.28
2022-09-09T10:15:07.882Z,1.95
2022-09-09T10:17:51.117Z,7.05
2022-09-09T10:20:33.133Z,5.07
2022-09-09T10:23:22.621Z,2.97
2022-09-09T10:26:14.610Z,1.75
2022-09-09T10:29:00.708Z,2.43
2022-09-09T10:31:40.076Z,2.35
2022-09-09T10:34:20.984Z,4.30
2022-09-09T10:36:52.294Z,1.60
2022-09-09T10:42:14.344Z,2.25
2022-09-09T10:44:58.060Z,1.75
2022-09-09T10:47:44.409Z,1.90
2022-09-09T10:51:00.051Z,3.28
2022-09-09T10:53:37.603Z,1.25
2022-09-09T10:56:10.313Z,1.35
2022-09-09T10:58:44.053Z,0.70
2022-09-09T11:01:18.502Z,5.00
2022-09-09T11:03:52.412Z,2.55
2022-09-09T11:06:23.744Z,0.80
2022-09-09T11:08:57.086Z,1.15
2022-09-09T11:11:32.124Z,1.92
2022-09-09T11:14:06.310Z,2.45
2022-09-09T11:16:43.216Z,2.25
2022-09-09T11:19:19.626Z,2.05
2022-09-09T11:21:50.446Z,3.30
2022-09-09T11:24:24.787Z,2.60
2022-09-09T11:26:58.588Z,1.02
2022-09-09T11:29:46.030Z,1.00
2022-09-09T11:32:33.146Z,2.20
2022-09-09T11:35:09.863Z,1.25
2022-09-09T11:37:56.184Z,1.52
2022-09-09T11:40:27.239Z,1.38
2022-09-09T11:43:07.388Z,3.60
2022-09-09T11:45:37.691Z,9.13
2022-09-09T11:48:07.754Z,2.53
2022-09-09T11:50:38.402Z,2.83
2022-09-09T11:53:21.793Z,2.42
2022-09-09T11:56:06.688Z,0.85
2022-09-09T11:58:39.937Z,13.35
2022-09-09T12:01:35.753Z,1.08
2022-09-09T12:04:30.125Z,1.50
2022-09-09T12:07:01.805Z,1.85
2022-09-09T12:09:35.945Z,1.48
2022-09-09T12:12:09.986Z,1.67
2022-09-09T12:14:40.447Z,1.48
2022-09-09T12:17:20.375Z,1.40
2022-09-09T12:19:49.106Z,1.30
2022-09-09T12:22:28.321Z,1.88
2022-09-09T12:25:06.918Z,2.65
2022-09-09T12:27:47.314Z,0.82
2022-09-09T12:30:18.031Z,1.13
2022-09-09T12:32:46.418Z,3.08
2022-09-09T12:35:22.280Z,1.48
2022-09-09T12:37:54.965Z,1.02
2022-09-09T12:40:24.989Z,1.80
2022-09-09T12:42:56.170Z,1.48
2022-09-09T12:45:27.101Z,1.63
2022-09-09T12:47:59.325Z,1.23
2022-09-09T12:50:31.110Z,2.42
2022-09-09T12:53:01.441Z,1.63
2022-09-09T12:55:34.613Z,1.98
2022-09-09T12:58:06.933Z,0.88
2022-09-09T13:00:37.097Z,1.17
2022-09-09T13:03:18.465Z,1.05
2022-09-09T13:05:47.921Z,0.70
2022-09-09T13:08:20.670Z,1.45
2022-09-09T13:10:56.349Z,3.10
2022-09-09T13:13:30.900Z,2.13
2022-09-09T13:16:00.930Z,1.00
2022-09-09T13:18:31.900Z,0.90
2022-09-09T13:21:00.114Z,2.07
2022-09-09T13:23:31.141Z,1.08
2022-09-09T13:26:01.203Z,1.50
2022-09-09T13:28:33.831Z,1.40
2022-09-09T13:31:04.615Z,1.50
2022-09-09T13:33:35.043Z,1.48
2022-09-09T13:36:05.998Z,2.80
2022-09-09T13:38:37.593Z,1.97
2022-09-09T13:41:08.191Z,1.00
2022-09-09T13:43:40.461Z,0.93
2022-09-09T13:46:33.962Z,0.98
2022-09-09T13:49:03.623Z,1.10
2022-09-09T13:51:37.988Z,2.25
2022-09-09T13:54:07.349Z,1.00
2022-09-09T13:56:36.177Z,1.40
2022-09-09T13:59:07.417Z,1.52
2022-09-09T14:01:35.870Z,1.27
2022-09-09T14:04:04.340Z,1.88
2022-09-09T14:06:33.153Z,1.50
2022-09-09T14:09:01.212Z,1.10
2022-09-09T14:11:29.453Z,1.52
2022-09-09T14:13:57.172Z,2.13
2022-09-09T14:16:28.737Z,1.60
2022-09-09T14:18:58.161Z,1.15
2022-09-09T14:21:26.237Z,1.67
2022-09-09T14:23:54.602Z,1.60
2022-09-09T14:26:24.475Z,2.05
2022-09-09T14:28:55.443Z,1.25
2022-09-09T14:31:27.081Z,2.38
2022-09-09T14:33:55.245Z,1.33
2022-09-09T14:36:23.813Z,0.85
2022-09-09T14:38:52.913Z,1.55
2022-09-09T14:41:23.525Z,4.78
2022-09-09T14:43:52.571Z,1.70
2022-09-09T14:46:22.149Z,2.00
2022-09-09T14:48:51.928Z,3.30
2022-09-09T14:51:23.106Z,1.83
2022-09-09T14:56:24.049Z,3.00
2022-09-09T14:58:53.301Z,5.97
2022-09-09T15:01:23.173Z,0.75
2022-09-09T15:03:55.122Z,1.40
2022-09-09T15:06:24.232Z,1.15
2022-09-09T15:08:53.213Z,1.15
2022-09-09T15:11:23.693Z,0.85
2022-09-09T15:13:54.039Z,1.02
2022-09-09T15:16:24.149Z,1.10
2022-09-09T15:18:55.732Z,3.05
2022-09-09T15:21:25.294Z,1.60
2022-09-09T15:23:53.757Z,1.90
2022-09-09T15:26:21.829Z,1.52
2022-09-09T15:28:51.689Z,3.15
2022-09-09T15:31:21.585Z,1.23
2022-09-09T15:33:50.349Z,1.73
2022-09-09T15:36:21.670Z,1.63
2022-09-09T15:38:50.725Z,1.95
2022-09-09T15:41:19.868Z,1.20
2022-09-09T15:43:49.683Z,2.28
2022-09-09T15:46:28.124Z,1.33
2022-09-09T15:48:58.041Z,1.73
2022-09-09T15:51:42.234Z,1.65
2022-09-09T15:54:13.320Z,1.70
2022-09-09T15:56:41.908Z,1.85
2022-09-09T15:59:09.831Z,1.58
2022-09-09T16:01:37.911Z,2.10
2022-09-09T16:04:06.307Z,3.00
2022-09-09T16:06:35.781Z,2.65
2022-09-09T16:09:06.211Z,3.10
2022-09-09T16:11:36.604Z,3.03
2022-09-09T16:14:06.292Z,2.45
2022-09-09T16:16:35.994Z,2.17
2022-09-09T16:19:07.301Z,4.60
2022-09-09T16:21:40.605Z,2.60
2022-09-09T16:24:10.504Z,3.55
2022-09-09T16:26:40.132Z,4.32
2022-09-09T16:29:09.706Z,2.13
2022-09-09T16:31:38.752Z,3.17
2022-09-09T16:34:06.657Z,4.88
2022-09-09T16:36:37.765Z,4.60
2022-09-09T16:41:35.501Z,2.97
2022-09-09T16:44:05.399Z,3.45
2022-09-09T16:46:36.386Z,2.45
2022-09-09T16:49:07.053Z,2.30
2022-09-09T16:51:38.816Z,3.05
2022-09-09T16:54:08.926Z,6.95
2022-09-09T16:56:42.089Z,6.65
2022-09-09T16:59:11.833Z,4.00
2022-09-09T17:01:42.415Z,4.28
2022-09-09T17:04:14.125Z,4.30
2022-09-09T17:06:43.774Z,8.52
2022-09-09T17:09:13.913Z,5.07
2022-09-09T17:11:42.370Z,4.78
2022-09-09T17:14:14.972Z,4.38
2022-09-09T17:16:42.756Z,8.38
2022-09-09T17:19:11.673Z,7.93
2022-09-09T17:21:59.902Z,7.35
2022-09-09T17:24:30.236Z,7.18
2022-09-09T17:26:58.812Z,4.78
2022-09-09T17:29:26.631Z,8.20
2022-09-09T17:31:54.727Z,6.53
2022-09-09T17:34:22.794Z,5.30
2022-09-09T17:36:50.690Z,3.95
2022-09-09T17:39:18.445Z,5.95
2022-09-09T17:41:47.758Z,5.75
2022-09-09T17:44:15.780Z,6.60
2022-09-09T17:46:46.319Z,5.80
2022-09-09T17:49:16.771Z,4.35
2022-09-09T17:51:46.305Z,4.85
2022-09-09T17:54:15.874Z,5.05
2022-09-09T17:56:44.935Z,10.85
2022-09-09T17:59:18.625Z,8.30
2022-09-09T18:01:50.979Z,13.00
2022-09-09T18:04:19.821Z,13.00
2022-09-09T18:06:49.461Z,9.13
2022-09-09T18:09:18.657Z,12.82
2022-09-09T18:11:49.222Z,7.45
2022-09-09T18:14:20.558Z,4.65
2022-09-09T18:16:48.691Z,6.40
2022-09-09T18:19:19.872Z,6.13
2022-09-09T18:21:49.138Z,6.93
2022-09-09T18:24:19.194Z,8.88
2022-09-09T18:26:48.239Z,7.97
2022-09-09T18:29:20.835Z,5.97
2022-09-09T18:31:49.694Z,11.57
2022-09-09T18:34:19.265Z,15.57
2022-09-09T18:36:49.399Z,19.40
2022-09-09T18:39:19.333Z,17.05
2022-09-09T18:41:48.964Z,11.13
2022-09-09T18:44:20.765Z,11.60
2022-09-09T18:46:50.402Z,11.65
2022-09-09T18:49:18.188Z,11.68
2022-09-09T18:51:46.874Z,11.20
2022-09-09T18:54:17.433Z,11.20
2022-09-09T18:56:45.520Z,12.20
2022-09-09T18:59:15.365Z,7.93
2022-09-09T19:01:45.329Z,12.63
2022-09-09T19:04:13.418Z,11.18
2022-09-09T19:06:42.830Z,8.65
2022-09-09T19:09:11.757Z,15.70
2022-09-09T19:11:40.304Z,11.45
2022-09-09T19:14:11.513Z,9.15
2022-09-09T19:16:40.439Z,12.47
2022-09-09T19:19:13.365Z,10.93
2022-09-09T19:21:42.454Z,9.52
2022-09-09T19:24:14.287Z,12.32
2022-09-09T19:29:15.281Z,13.95
2022-09-09T19:32:01.915Z,17.60
2022-09-09T19:34:33.511Z,14.88
2022-09-09T19:37:01.609Z,13.05
2022-09-09T19:39:29.477Z,13.70
2022-09-09T19:41:57.301Z,17.52
2022-09-09T19:44:25.704Z,14.57
2022-09-09T19:46:53.472Z,9.98
2022-09-09T19:49:21.331Z,10.82
2022-09-09T19:51:50.660Z,10.82
2022-09-09T19:54:18.525Z,12.90
2022-09-09T19:56:46.678Z,14.75
2022-09-09T19:59:15.719Z,20.98
2022-09-09T20:01:45.530Z,14.45
2022-09-09T20:04:17.194Z,18.95
2022-09-09T20:06:45.530Z,17.77
2022-09-09T20:09:18.237Z,15.73
2022-09-09T20:11:48.051Z,18.52
2022-09-09T20:14:17.097Z,14.90
2022-09-09T20:16:45.801Z,12.48
2022-09-09T20:19:16.086Z,13.70
2022-09-09T20:21:47.861Z,12.63
2022-09-09T20:24:19.734Z,13.02
2022-09-09T20:26:49.103Z,13.50
2022-09-09T20:29:19.810Z,17.33
2022-09-09T20:31:48.516Z,16.35
2022-09-09T20:34:18.686Z,18.00
2022-09-09T20:36:48.433Z,12.82
2022-09-09T20:39:19.865Z,12.05
2022-09-09T20:41:48.341Z,15.13
2022-09-09T20:44:18.196Z,13.85
2022-09-09T20:46:48.873Z,12.25
2022-09-09T20:49:17.989Z,16.63
2022-09-09T20:51:47.554Z,14.23
2022-09-09T20:54:18.768Z,10.32
2022-09-09T20:56:48.055Z,10.97
2022-09-09T20:59:17.983Z,12.57
2022-09-09T21:01:47.582Z,14.90
2022-09-09T21:04:18.715Z,12.32
2022-09-09T21:06:47.100Z,14.60
2022-09-09T21:09:15.179Z,14.98
2022-09-09T21:11:44.470Z,12.95
2022-09-09T21:14:12.556Z,10.52
2022-09-09T21:16:40.347Z,12.65
2022-09-09T21:19:08.053Z,12.63
2022-09-09T21:21:36.236Z,10.38
2022-09-09T21:24:04.523Z,11.35
2022-09-09T21:26:32.378Z,10.77
2022-09-09T21:29:01.844Z,10.10
2022-09-09T21:31:29.883Z,12.10
2022-09-09T21:33:57.670Z,12.77
2022-09-09T21:36:28.108Z,13.50
2022-09-09T21:38:55.889Z,11.30
2022-09-09T21:41:24.190Z,14.55
2022-09-09T21:43:53.927Z,15.73
2022-09-09T21:46:26.469Z,14.00
2022-09-09T21:48:56.629Z,14.98
2022-09-09T21:51:26.373Z,11.45
2022-09-09T21:53:57.023Z,11.20
2022-09-09T21:56:26.611Z,13.15
2022-09-09T21:58:58.464Z,10.45
2022-09-09T22:01:27.909Z,16.45
2022-09-09T22:03:56.273Z,14.18
2022-09-09T22:06:24.072Z,10.50
2022-09-09T22:08:52.136Z,12.23
2022-09-09T22:11:22.154Z,13.55
2022-09-09T22:13:50.634Z,12.63
2022-09-09T22:16:21.381Z,11.48
2022-09-09T22:18:53.735Z,14.77
2022-09-09T22:21:21.959Z,16.30
2022-09-09T22:23:54.060Z,13.00
2022-09-09T22:26:23.032Z,18.45
2022-09-09T22:28:51.725Z,10.32
2022-09-09T22:31:20.808Z,14.63
2022-09-09T22:33:49.273Z,14.45
2022-09-09T22:36:19.739Z,13.80
2022-09-09T22:38:47.929Z,13.48
2022-09-09T22:41:17.009Z,12.85
2022-09-09T22:43:45.454Z,12.25
2022-09-09T22:46:13.882Z,13.00
2022-09-09T22:48:42.071Z,12.73
2022-09-09T22:51:12.430Z,14.98
2022-09-09T22:53:42.816Z,17.95
2022-09-09T22:56:15.285Z,14.77
2022-09-09T22:58:43.158Z,13.15
2022-09-09T23:01:15.442Z,12.05
2022-09-09T23:03:46.093Z,11.88
2022-09-09T23:06:21.969Z,12.27
2022-09-09T23:08:55.651Z,13.95
2022-09-09T23:11:26.324Z,15.32
2022-09-09T23:13:55.937Z,17.30
2022-09-09T23:16:25.788Z,11.65
2022-09-09T23:18:55.478Z,11.75
2022-09-09T23:21:26.138Z,13.65
2022-09-09T23:23:57.749Z,16.07
2022-09-09T23:26:27.081Z,12.87
2022-09-09T23:28:58.358Z,14.23
2022-09-09T23:31:27.691Z,18.70
2022-09-09T23:33:57.996Z,24.45
2022-09-09T23:36:29.441Z,18.15
2022-09-09T23:38:59.685Z,19.88
2022-09-09T23:41:28.072Z,20.63
2022-09-09T23:43:57.661Z,22.10
2022-09-09T23:46:28.483Z,18.52
2022-09-09T23:48:58.206Z,21.83
2022-09-09T23:51:30.501Z,19.20
2022-09-09T23:54:02.871Z,20.67
2022-09-09T23:56:33.883Z,22.08
2022-09-09T23:59:02.271Z,17.00
